Enter the Airport ICAO Code

Search by Airport or City

Current Weather

LERT | US Naval Station Rota[1]

Rota, Andalusia, Spain

Last Update 34 Minutes Ago

Clear Sky

Temperature of 19 ēC

Light Winds from West

Temperature

19 ēC

Dew Point Temperature

17 ēC

Relative Humidity

88.25 %

Wind Direction

West (250ē, Without Significant Variations)

Wind Velocity

7 km/h (04 kt)

Gusts

None

Visibility

No Significant Reductions

Sea Level Pressure

1020 hPa (Hectopascals)

Layers of Clouds

None

METAR LERT 202130Z 25004KT CAVOK 19/17 Q1020 NOSIG

Weather Forecast

LERT | US Naval Station Rota[1]

Rota, Andalusia, Spain

Forecast valid for the next 23 Hours

From now on it is expected:

Clear Sky

Moderate Winds from West

In 3 to 5 hours it is expected the begining of:

Light to Moderate Winds from North

In 13 to 15 hours it is expected the begining of:

Moderate Winds from West

Maximum Temperature

25 ēC in 17 Hours

Minimum Temperature

15 ēC in 8 Hours

TAF LERT 202000Z 2021/2121 25010KT CAVOK TX25/2115Z TN15/2106Z BECMG 2101/2103 34008KT BECMG 2111/2113 26010KT